createdAt,value
2024-03-12T00:00:42.298Z,15.13
2024-03-12T00:03:11.155Z,14.40
2024-03-12T00:05:41.904Z,17.47
2024-03-12T00:08:12.347Z,14.07
2024-03-12T00:10:40.668Z,14.47
2024-03-12T00:13:10.754Z,13.70
2024-03-12T00:15:38.975Z,14.23
2024-03-12T00:18:07.504Z,16.13
2024-03-12T00:20:36.181Z,14.57
2024-03-12T00:23:07.258Z,14.53
2024-03-12T00:25:38.250Z,16.00
2024-03-12T00:28:09.609Z,15.93
2024-03-12T00:30:42.174Z,17.47
2024-03-12T00:33:11.228Z,16.33
2024-03-12T00:35:43.973Z,14.57
2024-03-12T00:38:12.536Z,16.37
2024-03-12T00:40:43.825Z,15.27
2024-03-12T00:43:13.169Z,15.67
2024-03-12T00:45:42.655Z,16.43
2024-03-12T00:48:15.377Z,15.30
2024-03-12T00:50:46.827Z,16.73
2024-03-12T00:53:15.830Z,14.97
2024-03-12T00:55:49.175Z,15.67
2024-03-12T00:58:21.026Z,15.23
2024-03-12T01:00:50.154Z,15.57
2024-03-12T01:03:18.763Z,14.13
2024-03-12T01:05:47.459Z,13.60
2024-03-12T01:08:17.660Z,14.23
2024-03-12T01:10:53.550Z,14.37
2024-03-12T01:13:21.802Z,15.47
2024-03-12T01:15:53.988Z,17.33
2024-03-12T01:18:22.438Z,14.77
2024-03-12T01:20:50.792Z,14.97
2024-03-12T01:23:19.035Z,15.03
2024-03-12T01:25:48.844Z,15.17
2024-03-12T01:28:19.291Z,16.20
2024-03-12T01:30:47.746Z,16.70
2024-03-12T01:33:15.983Z,15.73
2024-03-12T01:35:48.528Z,14.33
2024-03-12T01:38:16.713Z,15.27
2024-03-12T01:40:44.872Z,16.30
2024-03-12T01:43:14.737Z,18.53
2024-03-12T01:45:44.363Z,18.07
2024-03-12T01:48:13.517Z,16.60
2024-03-12T01:50:42.179Z,14.10
2024-03-12T01:53:11.988Z,16.83
2024-03-12T01:55:44.513Z,15.57
2024-03-12T01:58:18.571Z,14.27
2024-03-12T02:00:47.635Z,15.53
2024-03-12T02:03:20.155Z,14.77
2024-03-12T02:05:48.966Z,17.20
2024-03-12T02:08:17.701Z,16.13
2024-03-12T02:10:46.757Z,15.90
2024-03-12T02:13:16.435Z,17.40
2024-03-12T02:15:45.065Z,19.10
2024-03-12T02:18:13.540Z,17.87
2024-03-12T02:20:41.770Z,17.60
2024-03-12T02:23:10.267Z,15.33
2024-03-12T02:25:39.749Z,15.90
2024-03-12T02:28:08.667Z,16.00
2024-03-12T02:30:36.989Z,15.10
2024-03-12T02:33:05.622Z,16.33
2024-03-12T02:35:35.774Z,15.83
2024-03-12T02:38:04.245Z,15.57
2024-03-12T02:40:34.735Z,16.03
2024-03-12T02:43:04.733Z,14.97
2024-03-12T02:45:33.845Z,15.33
2024-03-12T02:48:05.981Z,15.50
2024-03-12T02:50:34.285Z,16.73
2024-03-12T02:53:02.517Z,14.73
2024-03-12T02:55:31.004Z,20.37
2024-03-12T02:57:59.255Z,18.53
2024-03-12T03:00:30.242Z,18.50
2024-03-12T03:02:58.563Z,18.23
2024-03-12T03:05:26.812Z,17.53
2024-03-12T03:07:55.856Z,16.90
2024-03-12T03:10:24.097Z,16.33
2024-03-12T03:12:53.048Z,16.60
2024-03-12T03:15:22.027Z,19.27
2024-03-12T03:17:51.581Z,17.27
2024-03-12T03:20:19.809Z,14.70
2024-03-12T03:22:48.059Z,15.20
2024-03-12T03:25:16.779Z,13.87
2024-03-12T03:27:45.096Z,13.97
2024-03-12T03:30:19.201Z,14.20
2024-03-12T03:32:49.874Z,14.47
2024-03-12T03:35:20.526Z,13.40
2024-03-12T03:37:48.774Z,12.67
2024-03-12T03:40:24.251Z,13.27
2024-03-12T03:42:54.464Z,14.43
2024-03-12T03:45:22.851Z,14.30
2024-03-12T03:47:51.493Z,12.73
2024-03-12T03:50:21.150Z,14.60
2024-03-12T03:52:50.063Z,14.37
2024-03-12T03:55:18.576Z,13.23
2024-03-12T03:57:49.237Z,15.20
2024-03-12T04:00:20.144Z,12.27
2024-03-12T04:02:49.946Z,12.50
2024-03-12T04:05:20.598Z,11.80
2024-03-12T04:07:50.124Z,12.37
2024-03-12T04:10:18.484Z,13.37
2024-03-12T04:12:47.768Z,12.90
2024-03-12T04:15:17.322Z,14.57
2024-03-12T04:17:46.116Z,13.67
2024-03-12T04:20:17.811Z,13.90
2024-03-12T04:22:47.592Z,14.53
2024-03-12T04:25:18.580Z,12.70
2024-03-12T04:27:48.538Z,13.97
2024-03-12T04:30:16.842Z,15.20
2024-03-12T04:32:46.558Z,14.20
2024-03-12T04:35:14.898Z,14.90
2024-03-12T04:37:43.367Z,15.57
2024-03-12T04:40:13.781Z,15.20
2024-03-12T04:42:44.826Z,14.63
2024-03-12T04:45:13.225Z,17.00
2024-03-12T04:47:42.721Z,14.57
2024-03-12T04:50:15.034Z,15.60
2024-03-12T04:52:43.405Z,15.93
2024-03-12T04:55:14.597Z,14.87
2024-03-12T04:57:42.901Z,15.70
2024-03-12T05:00:16.735Z,14.03
2024-03-12T05:02:45.838Z,16.70
2024-03-12T05:05:19.031Z,14.77
2024-03-12T05:07:47.348Z,15.80
2024-03-12T05:10:17.679Z,15.77
2024-03-12T05:12:46.192Z,16.53
2024-03-12T05:15:14.598Z,17.80
2024-03-12T05:17:43.765Z,15.13
2024-03-12T05:20:15.436Z,13.83
2024-03-12T05:22:43.771Z,13.70
2024-03-12T05:25:20.529Z,15.80
2024-03-12T05:27:51.399Z,14.13
2024-03-12T05:30:21.933Z,14.33
2024-03-12T05:32:51.024Z,15.00
2024-03-12T05:35:21.839Z,14.67
2024-03-12T05:38:09.653Z,16.63
2024-03-12T05:40:58.389Z,13.50
2024-03-12T05:43:47.594Z,17.00
2024-03-12T05:46:34.472Z,18.87
2024-03-12T05:49:03.732Z,15.00
2024-03-12T05:51:33.141Z,14.90
2024-03-12T05:54:01.437Z,13.97
2024-03-12T05:56:31.581Z,12.37
2024-03-12T05:59:01.287Z,14.67
2024-03-12T06:01:33.969Z,12.97
2024-03-12T06:04:03.546Z,12.73
2024-03-12T06:06:35.548Z,11.63
2024-03-12T06:09:03.970Z,12.70
2024-03-12T06:11:35.512Z,11.93
2024-03-12T06:14:07.072Z,12.17
2024-03-12T06:16:35.430Z,14.20
2024-03-12T06:19:03.613Z,12.10
2024-03-12T06:21:33.797Z,13.13
2024-03-12T06:24:02.064Z,13.37
2024-03-12T06:26:30.761Z,11.30
2024-03-12T06:28:59.393Z,15.37
2024-03-12T06:31:33.794Z,10.83
2024-03-12T06:34:01.999Z,10.27
2024-03-12T06:36:39.131Z,12.90
2024-03-12T06:39:11.701Z,12.87
2024-03-12T06:41:42.473Z,10.07
2024-03-12T06:44:16.904Z,10.67
2024-03-12T06:46:46.925Z,9.60
2024-03-12T06:49:15.762Z,12.10
2024-03-12T06:51:52.804Z,8.90
2024-03-12T06:54:22.186Z,11.13
2024-03-12T06:56:56.647Z,8.63
2024-03-12T06:59:25.960Z,9.03
2024-03-12T07:01:56.519Z,11.40
2024-03-12T07:04:26.333Z,15.00
2024-03-12T07:06:56.244Z,8.53
2024-03-12T07:09:27.559Z,8.77
2024-03-12T07:12:00.096Z,8.50
2024-03-12T07:14:33.360Z,9.20
2024-03-12T07:17:02.902Z,9.90
2024-03-12T07:19:32.070Z,8.00
2024-03-12T07:22:00.776Z,7.60
2024-03-12T07:24:31.842Z,7.27
2024-03-12T07:27:00.489Z,8.60
2024-03-12T07:29:29.305Z,7.67
2024-03-12T07:31:57.509Z,7.57
2024-03-12T07:34:27.142Z,10.40
2024-03-12T07:36:55.833Z,8.87
2024-03-12T07:39:31.176Z,9.17
2024-03-12T07:42:01.055Z,9.17
2024-03-12T07:44:29.331Z,7.87
2024-03-12T07:46:57.892Z,8.70
2024-03-12T07:49:28.213Z,8.47
2024-03-12T07:51:56.424Z,7.27
2024-03-12T07:54:24.646Z,7.40
2024-03-12T07:56:52.827Z,6.87
2024-03-12T07:59:23.153Z,6.60
2024-03-12T08:01:54.106Z,9.03
2024-03-12T08:04:23.325Z,6.73
2024-03-12T08:06:53.125Z,7.37
2024-03-12T08:09:22.287Z,7.03
2024-03-12T08:11:52.870Z,6.93
2024-03-12T08:14:21.187Z,6.87
2024-03-12T08:16:50.364Z,6.73
2024-03-12T08:19:18.755Z,7.50
2024-03-12T08:21:47.833Z,8.37
2024-03-12T08:24:17.757Z,6.70
2024-03-12T08:26:45.958Z,6.53
2024-03-12T08:29:16.147Z,7.00
2024-03-12T08:31:51.501Z,6.40
2024-03-12T08:34:27.466Z,7.90
2024-03-12T08:36:57.950Z,7.07
2024-03-12T08:39:32.278Z,8.50
2024-03-12T08:42:01.178Z,6.57
2024-03-12T08:44:29.428Z,6.73
2024-03-12T08:46:59.547Z,7.03
2024-03-12T08:49:27.821Z,5.03
2024-03-12T08:51:56.866Z,6.13
2024-03-12T08:54:25.131Z,6.20
2024-03-12T08:56:54.738Z,5.23
2024-03-12T08:59:22.975Z,5.27
2024-03-12T09:01:51.385Z,5.80
2024-03-12T09:04:21.242Z,4.60
2024-03-12T09:06:49.594Z,4.87
2024-03-12T09:09:20.309Z,7.17
2024-03-12T09:11:48.869Z,5.73
2024-03-12T09:14:18.870Z,5.03
2024-03-12T09:16:47.066Z,5.30
2024-03-12T09:19:16.328Z,5.27
2024-03-12T09:21:44.687Z,5.40
2024-03-12T09:24:12.931Z,5.00
2024-03-12T09:26:41.106Z,5.20
2024-03-12T09:29:09.929Z,7.23
2024-03-12T09:31:40.390Z,6.00
2024-03-12T09:34:08.841Z,6.70
2024-03-12T09:36:37.124Z,6.27
2024-03-12T09:39:11.718Z,6.20
2024-03-12T09:41:45.907Z,6.75
2024-03-12T09:44:14.453Z,6.07
2024-03-12T09:46:46.578Z,6.43
2024-03-12T09:49:19.235Z,6.07
2024-03-12T09:51:47.971Z,6.35
2024-03-12T09:54:16.215Z,6.47
2024-03-12T09:56:44.773Z,9.43
2024-03-12T09:59:12.948Z,7.13
2024-03-12T10:01:41.235Z,6.55
2024-03-12T10:04:11.066Z,8.73
2024-03-12T10:06:39.402Z,7.45
2024-03-12T10:09:11.733Z,6.82
2024-03-12T10:11:46.061Z,6.50
2024-03-12T10:14:18.628Z,7.13
2024-03-12T10:16:46.863Z,6.63
2024-03-12T10:19:18.341Z,9.45
2024-03-12T10:21:47.381Z,6.70
2024-03-12T10:24:18.777Z,7.13
2024-03-12T10:26:47.546Z,7.15
2024-03-12T10:29:23.950Z,7.73
2024-03-12T10:31:52.187Z,6.22
2024-03-12T10:34:22.709Z,6.28
2024-03-12T10:36:51.944Z,6.63
2024-03-12T10:39:28.784Z,6.88
2024-03-12T10:42:03.979Z,8.07
2024-03-12T10:44:33.298Z,6.88
2024-03-12T10:47:02.745Z,6.38
2024-03-12T10:49:32.574Z,6.60
2024-03-12T10:52:01.252Z,7.80
2024-03-12T10:54:36.173Z,7.07
2024-03-12T10:57:07.759Z,8.00
2024-03-12T10:59:39.805Z,6.63
2024-03-12T11:02:08.904Z,6.88
2024-03-12T11:04:40.111Z,5.88
2024-03-12T11:07:11.755Z,5.60
2024-03-12T11:09:41.696Z,7.00
2024-03-12T11:12:10.845Z,7.10
2024-03-12T11:14:40.184Z,6.35
2024-03-12T11:17:28.465Z,6.22
2024-03-12T11:20:03.243Z,6.88
2024-03-12T11:22:32.409Z,7.60
2024-03-12T11:25:05.435Z,10.77
2024-03-12T11:27:35.325Z,7.50
2024-03-12T11:30:12.840Z,6.97
2024-03-12T11:32:44.808Z,6.93
2024-03-12T11:35:35.549Z,8.23
2024-03-12T11:38:09.627Z,8.38
2024-03-12T11:40:50.205Z,6.90
2024-03-12T11:43:41.239Z,9.38
2024-03-12T11:46:11.518Z,8.75
2024-03-12T11:48:43.050Z,6.78
2024-03-12T11:51:14.870Z,7.15
2024-03-12T11:53:46.292Z,6.75
2024-03-12T11:56:20.880Z,7.43
2024-03-12T11:58:59.769Z,6.60
2024-03-12T12:01:34.955Z,6.32
2024-03-12T12:04:06.406Z,6.43
2024-03-12T12:06:36.564Z,6.75
2024-03-12T12:09:07.385Z,7.03
2024-03-12T12:11:38.492Z,7.07
2024-03-12T12:14:09.590Z,7.10
2024-03-12T12:16:39.381Z,8.00
2024-03-12T12:19:16.574Z,8.43
2024-03-12T12:21:52.911Z,6.95
2024-03-12T12:24:27.101Z,7.20
2024-03-12T12:26:57.022Z,9.13
2024-03-12T12:29:29.928Z,6.97
2024-03-12T12:31:59.494Z,7.55
2024-03-12T12:34:29.492Z,6.35
2024-03-12T12:37:01.168Z,6.47
2024-03-12T12:39:43.715Z,7.10
2024-03-12T12:42:22.672Z,6.68
2024-03-12T12:44:54.711Z,7.18
2024-03-12T12:47:24.395Z,7.28
2024-03-12T12:49:55.734Z,6.85
2024-03-12T12:52:28.203Z,7.43
2024-03-12T12:55:00.385Z,7.38
2024-03-12T12:57:35.739Z,7.38
2024-03-12T13:00:16.280Z,7.70
2024-03-12T13:02:44.485Z,7.53
2024-03-12T13:05:22.258Z,8.98
2024-03-12T13:07:52.100Z,7.75
2024-03-12T13:10:21.268Z,8.07
2024-03-12T13:12:52.534Z,9.38
2024-03-12T13:15:28.241Z,9.95
2024-03-12T13:17:56.539Z,8.77
2024-03-12T13:20:25.603Z,7.45
2024-03-12T13:22:55.953Z,9.07
2024-03-12T13:25:24.478Z,8.95
2024-03-12T13:27:52.868Z,8.00
2024-03-12T13:30:21.211Z,8.23
2024-03-12T13:32:50.280Z,8.77
2024-03-12T13:35:21.190Z,7.95
2024-03-12T13:37:49.813Z,7.88
2024-03-12T13:40:20.326Z,8.55
2024-03-12T13:42:49.288Z,7.88
2024-03-12T13:45:20.207Z,7.82
2024-03-12T13:47:48.551Z,7.68
2024-03-12T13:50:16.820Z,7.82
2024-03-12T13:52:45.001Z,7.90
2024-03-12T13:55:13.262Z,7.18
2024-03-12T13:57:47.076Z,9.48
2024-03-12T14:00:17.436Z,7.00
2024-03-12T14:02:46.548Z,7.47
2024-03-12T14:05:17.624Z,8.23
2024-03-12T14:07:47.229Z,8.75
2024-03-12T14:10:15.666Z,8.43
2024-03-12T14:12:45.215Z,9.90
2024-03-12T14:15:13.936Z,8.85
2024-03-12T14:17:42.146Z,9.10
2024-03-12T14:20:15.152Z,9.23
2024-03-12T14:22:45.464Z,9.20
2024-03-12T14:25:14.155Z,10.30
2024-03-12T14:27:43.992Z,8.88
2024-03-12T14:30:14.470Z,9.75
2024-03-12T14:32:43.177Z,8.90
2024-03-12T14:35:11.656Z,8.70
2024-03-12T14:37:41.559Z,9.20
2024-03-12T14:40:10.980Z,10.27
2024-03-12T14:42:42.200Z,9.25
2024-03-12T14:45:13.525Z,9.32
2024-03-12T14:47:42.274Z,10.48
2024-03-12T14:50:11.440Z,8.85
2024-03-12T14:52:40.046Z,8.55
2024-03-12T14:55:09.499Z,8.30
2024-03-12T14:57:39.172Z,8.90
2024-03-12T15:00:10.632Z,8.05
2024-03-12T15:02:41.548Z,10.00
2024-03-12T15:05:12.264Z,8.95
2024-03-12T15:07:42.191Z,10.18
2024-03-12T15:10:11.653Z,9.40
2024-03-12T15:12:42.148Z,9.40
2024-03-12T15:15:12.867Z,10.50
2024-03-12T15:17:46.080Z,9.73
2024-03-12T15:20:16.742Z,9.57
2024-03-12T15:22:48.128Z,9.82
2024-03-12T15:25:21.534Z,10.18
2024-03-12T15:27:50.348Z,10.47
2024-03-12T15:30:20.543Z,11.73
2024-03-12T15:32:50.249Z,9.63
2024-03-12T15:35:19.871Z,11.73
2024-03-12T15:37:48.114Z,9.68
2024-03-12T15:40:19.532Z,10.17
2024-03-12T15:42:48.085Z,12.20
2024-03-12T15:45:17.019Z,10.47
2024-03-12T15:47:45.868Z,10.90
2024-03-12T15:50:16.635Z,11.90
2024-03-12T15:52:45.663Z,10.90
2024-03-12T15:55:14.465Z,9.53
2024-03-12T15:57:45.636Z,9.73
2024-03-12T16:00:15.784Z,10.50
2024-03-12T16:02:46.112Z,10.10
2024-03-12T16:05:16.101Z,11.30
2024-03-12T16:07:46.969Z,11.07
2024-03-12T16:10:15.995Z,9.67
2024-03-12T16:12:46.833Z,11.10
2024-03-12T16:15:15.615Z,10.20
2024-03-12T16:17:44.187Z,10.90
2024-03-12T16:20:15.391Z,10.47
2024-03-12T16:22:46.742Z,11.87
2024-03-12T16:25:15.684Z,12.10
2024-03-12T16:27:45.059Z,10.87
2024-03-12T16:30:15.685Z,12.20
2024-03-12T16:32:45.715Z,10.60
2024-03-12T16:35:15.893Z,11.27
2024-03-12T16:37:45.964Z,10.07
2024-03-12T16:40:14.861Z,11.20
2024-03-12T16:42:44.477Z,11.13
2024-03-12T16:45:13.667Z,11.40
2024-03-12T16:47:42.975Z,14.10
2024-03-12T16:50:15.877Z,11.73
2024-03-12T16:52:47.335Z,12.30
2024-03-12T16:55:17.140Z,10.70
2024-03-12T16:57:46.158Z,10.98
2024-03-12T17:00:16.073Z,11.83
2024-03-12T17:02:45.248Z,11.50
2024-03-12T17:05:17.510Z,11.43
2024-03-12T17:07:51.718Z,10.43
2024-03-12T17:10:22.660Z,12.83
2024-03-12T17:12:52.304Z,11.80
2024-03-12T17:15:24.339Z,11.70
2024-03-12T17:17:53.211Z,14.07
2024-03-12T17:20:22.124Z,11.93
2024-03-12T17:22:52.460Z,15.10
2024-03-12T17:25:21.502Z,12.93
2024-03-12T17:27:52.726Z,11.20
2024-03-12T17:30:25.478Z,12.83
2024-03-12T17:32:56.220Z,11.57
2024-03-12T17:35:25.597Z,11.73
2024-03-12T17:38:02.063Z,11.63
2024-03-12T17:40:33.695Z,12.77
2024-03-12T17:43:03.447Z,11.77
2024-03-12T17:45:32.740Z,12.93
2024-03-12T17:48:03.257Z,12.50
2024-03-12T17:50:32.911Z,12.00
2024-03-12T17:53:07.238Z,11.80
2024-03-12T17:55:37.238Z,16.13
2024-03-12T17:58:07.214Z,10.73
2024-03-12T18:00:36.714Z,13.93
2024-03-12T18:03:09.066Z,12.87
2024-03-12T18:05:37.887Z,12.13
2024-03-12T18:08:19.671Z,14.03
2024-03-12T18:10:51.222Z,11.27
2024-03-12T18:13:20.834Z,13.50
2024-03-12T18:15:50.506Z,11.63
2024-03-12T18:18:18.907Z,11.93
2024-03-12T18:20:47.413Z,11.40
2024-03-12T18:23:16.959Z,13.13
2024-03-12T18:25:45.288Z,12.87
2024-03-12T18:28:15.583Z,12.48
2024-03-12T18:30:43.910Z,11.97
2024-03-12T18:33:12.344Z,10.07
2024-03-12T18:35:40.656Z,10.40
2024-03-12T18:38:08.960Z,11.17
2024-03-12T18:40:39.289Z,10.80
2024-03-12T18:43:08.760Z,11.47
2024-03-12T18:45:39.952Z,11.10
2024-03-12T18:48:11.233Z,13.27
2024-03-12T18:50:40.089Z,10.47
2024-03-12T18:53:09.604Z,10.83
2024-03-12T18:55:40.144Z,12.80
2024-03-12T18:58:09.657Z,9.90
2024-03-12T19:00:39.818Z,11.43
2024-03-12T19:03:18.657Z,12.70
2024-03-12T19:05:48.956Z,12.07
2024-03-12T19:08:18.416Z,12.00
2024-03-12T19:10:48.986Z,12.83
2024-03-12T19:13:17.912Z,11.23
2024-03-12T19:15:46.934Z,12.20
2024-03-12T19:18:21.429Z,13.53
2024-03-12T19:20:52.498Z,19.10
2024-03-12T19:23:21.537Z,12.07
2024-03-12T19:25:51.737Z,13.20
2024-03-12T19:28:20.040Z,13.67
2024-03-12T19:30:49.094Z,12.23
2024-03-12T19:33:19.898Z,13.10
2024-03-12T19:35:51.657Z,12.03
2024-03-12T19:38:21.018Z,11.50
2024-03-12T19:40:53.804Z,12.67
2024-03-12T19:43:25.176Z,12.47
2024-03-12T19:45:54.917Z,12.93
2024-03-12T19:48:27.213Z,13.60
2024-03-12T19:50:56.900Z,13.10
2024-03-12T19:53:25.136Z,13.20
2024-03-12T19:55:55.274Z,13.23
2024-03-12T19:58:24.287Z,14.00
2024-03-12T20:00:54.363Z,13.93
2024-03-12T20:03:24.033Z,13.27
2024-03-12T20:05:52.608Z,13.07
2024-03-12T20:08:21.055Z,13.80
2024-03-12T20:10:49.383Z,13.37
2024-03-12T20:13:19.352Z,13.70
2024-03-12T20:15:48.579Z,15.07
2024-03-12T20:18:16.903Z,15.10
2024-03-12T20:20:45.524Z,16.53
2024-03-12T20:23:13.646Z,15.10
2024-03-12T20:25:42.076Z,14.80
2024-03-12T20:28:13.079Z,14.00
2024-03-12T20:30:43.633Z,13.07
2024-03-12T20:33:13.333Z,12.93
2024-03-12T20:35:44.137Z,15.17
2024-03-12T20:38:15.354Z,14.07
2024-03-12T20:40:44.012Z,13.00
2024-03-12T20:43:12.731Z,13.37
2024-03-12T20:45:46.269Z,14.00
2024-03-12T20:48:14.774Z,15.27
2024-03-12T20:50:43.841Z,12.70
2024-03-12T20:53:12.317Z,14.10
2024-03-12T20:55:41.101Z,13.43
2024-03-12T20:58:09.486Z,13.03
2024-03-12T21:00:38.743Z,13.80
2024-03-12T21:03:10.374Z,14.27
2024-03-12T21:05:40.101Z,13.33
2024-03-12T21:08:08.782Z,13.03
2024-03-12T21:10:38.781Z,12.40
2024-03-12T21:13:07.103Z,15.17
2024-03-12T21:15:36.024Z,12.77
2024-03-12T21:18:07.003Z,15.47
2024-03-12T21:20:36.742Z,14.43
2024-03-12T21:23:08.587Z,14.80
2024-03-12T21:25:36.892Z,13.13
2024-03-12T21:28:06.875Z,14.60
2024-03-12T21:30:37.180Z,15.70
2024-03-12T21:33:05.733Z,12.97
2024-03-12T21:35:35.065Z,13.70
2024-03-12T21:38:05.068Z,13.23
2024-03-12T21:40:36.155Z,14.83
2024-03-12T21:43:05.299Z,14.37
2024-03-12T21:45:36.472Z,13.00
2024-03-12T21:48:08.030Z,15.17
2024-03-12T21:50:36.729Z,13.57
2024-03-12T21:53:09.094Z,15.23
2024-03-12T21:55:40.036Z,13.00
2024-03-12T21:58:08.852Z,13.50
2024-03-12T22:00:37.108Z,14.57
2024-03-12T22:03:06.045Z,13.83
2024-03-12T22:05:35.417Z,14.87
2024-03-12T22:08:05.998Z,12.90
2024-03-12T22:10:35.482Z,12.97
2024-03-12T22:13:04.013Z,12.60
2024-03-12T22:15:33.195Z,14.47
2024-03-12T22:18:02.420Z,15.03
2024-03-12T22:20:30.625Z,12.83
2024-03-12T22:22:59.443Z,14.83
2024-03-12T22:25:30.707Z,12.50
2024-03-12T22:27:59.036Z,13.63
2024-03-12T22:30:31.334Z,13.53
2024-03-12T22:33:02.810Z,14.43
2024-03-12T22:35:31.001Z,14.10
2024-03-12T22:38:03.346Z,11.97
2024-03-12T22:40:35.819Z,11.77
2024-03-12T22:43:04.680Z,12.77
2024-03-12T22:45:33.183Z,13.83
2024-03-12T22:48:04.202Z,13.47
2024-03-12T22:50:33.761Z,13.37
2024-03-12T22:53:05.540Z,14.07
2024-03-12T22:55:35.759Z,13.47
2024-03-12T22:58:06.078Z,15.33
2024-03-12T23:00:42.183Z,12.57
2024-03-12T23:03:14.881Z,11.97
2024-03-12T23:05:44.912Z,12.57
2024-03-12T23:08:15.458Z,14.30
2024-03-12T23:10:46.040Z,12.90
2024-03-12T23:13:18.335Z,13.77
2024-03-12T23:15:46.929Z,12.83
2024-03-12T23:18:15.280Z,13.87
2024-03-12T23:20:45.838Z,13.10
2024-03-12T23:23:14.647Z,14.13
2024-03-12T23:25:45.180Z,13.00
2024-03-12T23:28:14.146Z,15.97
2024-03-12T23:30:43.531Z,14.87
2024-03-12T23:33:14.764Z,14.83
2024-03-12T23:35:43.738Z,15.60
2024-03-12T23:38:13.066Z,14.20
2024-03-12T23:40:41.953Z,13.57
2024-03-12T23:43:11.733Z,13.80
2024-03-12T23:45:40.546Z,14.63
2024-03-12T23:48:09.184Z,12.57
2024-03-12T23:50:39.645Z,15.67
2024-03-12T23:53:08.070Z,13.70
2024-03-12T23:55:36.312Z,13.70
2024-03-12T23:58:05.501Z,15.20
